KPDT

Eastern Oregon Regional at Pendleton Airport

Pendleton, Oregon, USA
METAR KPDT 191653Z VRB03KT 7SM CLR 24/06 A3005 RMK AO2 SLP158 T02440061
Observed Flight Rules
Aug-19 @ 16:53 UTC (21 minutes ago) Visual Flight Rules
Wind Visibility Clouds
Variable at 3 knots 7 miles
  • Clear skies
Temperatures Readings
Current 24°C / 75°F
Dewpoint 6°C / 43°F
Humidity 31%
Altimeter 30.05" Hg
Pressure 1015.8 hPa
Elevation 462
METAR KPDT 191653Z VRB03KT 7SM CLR 24/06 A3005 RMK AO2 SLP158 T02440061
Observed Flight Rules
Aug-19 @ 16:53 UTC
(21 minutes ago)
VFR
Wind Visibility
Variable at 3 knots 7 miles
Clouds
  • Clear skies
Temperature Dewpoint
24°C / 75°F 6°C / 43°F
Humidity Altimeter Pressure
31% 30.05" Hg 1015.8 hPa